WET,Max TemperatureF,Mean TemperatureF,Min TemperatureF,Max Dew PointF,MeanDew PointF,Min DewpointF,Max Humidity, Mean Humidity, Min Humidity, Max Sea Level PressureIn, Mean Sea Level PressureIn, Min Sea Level PressureIn, Max VisibilityMiles, Mean VisibilityMiles, Min VisibilityMiles, Max Wind SpeedMPH, Mean Wind SpeedMPH, Max Gust SpeedMPH,PrecipitationIn, CloudCover, Events, WindDirDegrees
2013-7-1,97,80,62,63,56,48,94,49,12,30.04,29.99,29.84,6,6,6,14,6,,0.00,,,294
2013-7-2,98,82,67,59,54,46,68,39,10,30.06,30.00,29.84,6,6,6,15,5,,0.00,,,329
2013-7-3,99,82,66,63,57,48,83,46,11,30.06,30.00,29.82,6,6,5,17,5,,0.00,,,314
2013-7-4,98,82,67,63,59,55,78,47,16,30.06,29.98,29.81,6,6,6,10,6,17,0.00,,,282
2013-7-5,101,84,67,63,57,50,68,39,18,30.01,29.95,29.78,6,6,6,17,6,,0.00,1,,272
2013-7-6,101,84,67,66,64,60,78,47,24,30.04,29.96,29.81,6,6,5,18,8,,0.00,2,,280
2013-7-7,110,89,68,65,59,45,69,39,11,30.06,29.96,29.77,6,6,4,21,5,32,0.00,3,Rain-Thunderstorm,290
2013-7-8,111,96,80,59,51,41,48,23,5,30.01,29.94,29.75,6,6,2,26,8,38,0.24,2,,238
2013-7-9,107,92,76,63,52,45,47,27,8,30.01,29.94,29.74,6,6,6,17,7,26,0.00,1,Thunderstorm,254
2013-7-10,108,92,77,59,52,41,48,25,5,29.98,29.91,29.71,6,6,5,22,8,36,0.00,3,Thunderstorm,13
2013-7-11,99,88,76,61,55,43,51,30,14,29.98,29.90,29.78,6,6,6,20,6,,0.00,4,,234
2013-7-12,104,90,76,55,50,39,47,26,7,30.09,29.97,29.84,6,6,6,14,6,,0.00,2,,14
2013-7-13,103,88,72,54,47,39,39,24,5,30.12,30.06,29.91,6,6,6,25,5,16,0.00,1,,313
2013-7-14,100,83,66,59,49,36,68,33,6,30.12,30.07,29.91,6,6,6,16,6,,0.00,1,,333
2013-7-15,100,83,66,60,51,36,68,34,6,30.12,30.05,29.88,6,6,6,25,7,,0.00,2,,7
2013-7-16,103,84,66,52,42,32,41,22,4,30.12,30.05,29.87,6,6,6,14,7,24,0.00,1,,45
2013-7-17,102,84,67,52,41,28,49,23,6,30.12,30.08,29.90,6,6,6,15,5,,0.00,1,,337
2013-7-18,98,82,65,59,52,43,73,38,8,30.12,30.05,29.86,6,6,6,16,6,,0.00,,,300
2013-7-19,97,80,64,63,57,46,94,51,14,30.06,29.99,29.83,6,6,6,15,6,,0.00,,,302
2013-7-20,92,77,62,59,55,48,88,49,16,30.04,29.98,29.84,6,6,6,13,6,,0.00,,,315
2013-7-21,96,79,62,59,55,43,83,46,10,30.04,30.00,29.85,6,6,6,13,5,,0.00,,,309
2013-7-22,97,80,63,61,57,52,83,48,14,30.04,30.00,29.84,6,6,6,14,5,18,0.00,3,,294
2013-7-23,98,80,63,63,58,48,88,49,12,30.04,30.00,29.83,6,6,6,15,6,,0.00,2,,301
2013-7-24,100,82,64,63,57,50,83,45,12,30.09,30.03,29.87,6,6,6,13,5,,0.00,1,,295
2013-7-25,96,81,66,61,57,50,73,46,16,30.09,30.04,29.88,6,6,6,14,6,,0.00,1,,283
2013-7-26,95,80,65,64,61,55,94,56,18,30.04,29.99,29.81,6,6,4,15,6,18,0.00,1,,263
2013-7-27,94,79,64,64,60,52,94,55,17,30.04,29.97,29.83,6,6,6,13,8,,0.00,1,,261
2013-7-28,99,83,67,63,57,52,73,43,14,30.12,30.04,29.91,6,6,6,14,6,17,0.00,1,,293
2013-7-29,101,84,68,59,54,50,57,35,10,30.12,30.08,29.90,6,6,6,16,5,,0.00,,,343
2013-7-30,107,88,69,63,56,52,53,34,11,30.12,30.03,29.82,6,6,6,10,5,,0.00,3,,300
2013-7-31,115,92,70,63,55,38,57,29,4,30.04,29.95,29.73,6,6,6,17,4,25,0.00,3,,349